• Join FlightAware (Why Join?)
  • Login
  • US Flag 
10:01AM EDT


 

Airport Tracker/Info


-or-


 

Live Flight TrackerFlight Track Log ✈ ASQ6115 ✈ 04-Jun-2013 ✈ KORD - KDAY

Flight Track Log - Related Links

Times and Time Zones

All times are in EDT time to prevent confusion due to time zone crossing. See the ASQ6115 flight status page for this flight to view local times or setup timezone preferences in your user account.

Time Position Orientation Groundspeed Altitude Reporting Facility
EDT Latitude Longitude Course Direction KTS MPH feet Rate Location/Type
01:32PM 41.9500 -87.9000 90° East 164 189 1,800  Level Chicago TRACON
01:33PM 41.9167 -87.8667 143° Southeast 193 222 4,200 2,100 Climbing Chicago TRACON
01:33PM 41.9064 -87.8583 149° Southeast 197 227 4,500 540 Climbing Chicago Center
01:34PM 41.9620 -87.4865 98° East  Level FlightAware Approximate
01:34PM 41.8942 -87.7561 99° East 230 265 5,000  Level Chicago Center
01:35PM 41.9488 -87.3497 95° East  Level FlightAware Approximate
01:35PM 41.9125 -87.6681 74° East 239 275 5,000  Level Chicago Center
01:36PM 41.9390 -87.2125 95° East  Level FlightAware Approximate
01:36PM 41.9181 -87.5761 85° East 248 285 6,000  Level Chicago Center
01:37PM 41.9333 -87.0749 90° East  Level FlightAware Approximate
01:37PM 41.9200 -87.4750 88° East 268 308 8,300  Level Chicago Center
01:38PM 41.9267 -87.3664 85° East 291 335 10,000 1,740 Climbing Chicago Center
01:39PM 41.9336 -87.2494 85° East 312 359 12,000 1,980 Climbing Chicago Center
01:40PM 41.9358 -87.1042 89° East 324 373 14,100 1,560 Climbing Chicago Center
01:41PM 41.9211 -86.9750 99° East 348 400 15,200 1,020 Climbing Chicago Center
01:42PM 41.9056 -86.8358 98° East 373 429 16,300 960 Climbing Chicago Center
01:43PM 41.8881 -86.6900 99° East 394 453 17,300 900 Climbing Chicago Center
01:44PM 41.8719 -86.5478 99° East 405 466 18,200 1,020 Climbing Chicago Center
01:45PM 41.8508 -86.3656 99° East 414 476 19,500 1,080 Climbing Chicago Center
01:46PM 41.8325 -86.2108 99° East 421 484 20,500 960 Climbing Chicago Center
01:47PM 41.7947 -86.0597 108° East 432 497 21,600 1,020 Climbing Chicago Center
01:48PM 41.7386 -85.9197 118° Southeast 433 498 22,700 660 Climbing Chicago Center
01:49PM 41.6547 -85.8064 135° Southeast 433 498 23,000 120 Climbing Chicago Center
01:50PM 41.5672 -85.6914 135° Southeast 444 511 23,000 -540 Level Chicago Center
01:51PM 41.4636 -85.5539 135° Southeast 446 513 22,000 -960 Descending Chicago Center
01:53PM 41.3797 -85.4419 135° Southeast 435 501 21,100 -960 Descending Chicago Center
01:54PM 41.2933 -85.3306 136° Southeast 436 502 20,100 -1,020 Descending Chicago Center
01:55PM 41.2047 -85.2142 135° Southeast 446 513 19,100 -540 Descending Chicago Center
01:56PM 41.1008 -85.0792 136° Southeast 442 509 19,000 -600 Descending Chicago Center
01:57PM 41.0131 -84.9683 136° Southeast 438 504 17,900 -1,140 Descending Chicago Center
01:58PM 40.9269 -84.8581 136° Southeast 435 501 16,700 -1,380 Descending Chicago Center
01:59PM 40.8453 -84.7506 135° Southeast 422 486 15,100 -840 Descending Chicago Center
02:00PM 40.7628 -84.6394 134° Southeast 423 487 15,000 -180 Descending Chicago Center
02:00PM 40.7117 -84.5767 137° Southeast 424 488 14,900 -480 Descending Indianapolis Center
02:01PM 40.6781 -84.5339 136° Southeast 425 489 14,600 -1,140 Descending Indianapolis Center
02:01PM 40.6344 -84.4783 136° Southeast 422 486 14,000 -1,200 Descending Indianapolis Center
02:02PM 40.5525 -84.3764 137° Southeast 403 464 12,800 -1,140 Descending Indianapolis Center
02:02PM 40.5453 -84.3664 134° Southeast 408 470 12,600 -1,200 Descending Indianapolis Center
02:03PM 40.4742 -84.2778 137° Southeast 389 448 11,600 -1,260 Descending Indianapolis Center
02:03PM 40.4522 -84.2533 140° Southeast 390 449 11,300 -1,020 Descending Indianapolis Center
02:04PM 40.3772 -84.2592 183° South 371 427 10,600 -1,140 Descending Indianapolis Center
02:04PM 40.3500 -84.2678 194° South 383 441 10,200 -600 Descending Indianapolis Center
02:05PM 40.2828 -84.2878 193° South 334 384 10,000 -600 Descending Indianapolis Center
02:05PM 40.2597 -84.2950 193° South 342 394 9,600 -1,800 Descending Indianapolis Center
02:06PM 40.1989 -84.3147 194° South 282 325 8,200 -1,800 Descending Indianapolis Center
02:06PM 40.1803 -84.3203 193° South 313 360 7,800 -1,500 Descending Indianapolis Center
02:07PM 40.1217 -84.3369 192° South 278 320 6,700 -1,380 Descending Indianapolis Center
02:08PM 40.1047 -84.3428 195° South 294 338 6,400 -1,380 Descending Indianapolis Center
02:08PM 40.0500 -84.3436 181° South 260 299 5,300 -1,260 Descending Indianapolis Center
02:09PM 40.0328 -84.3414 174° South 267 307 5,100 -1,380 Descending Indianapolis Center
02:09PM 39.9808 -84.3425 181° South 239 275 3,900 -1,560 Descending Indianapolis Center
02:10PM 39.9644 -84.3417 178° South 255 293 3,500 -1,140 Descending Indianapolis Center